Beulah, MS (38726)

4:22 AM CDT on July 23, 2014 (GMT -0500)
Cleveland Municipal (KRNV) Elev 138 ft | 33.76 °N, 90.76 °W | Change Station

Current weather conditions updated 7 minutes ago

Clear
Clear
72 °F
Feels Like 72 °F
N
4
Wind Variable Wind from SSE

Today is forecast to be Warmer than yesterday.

Today
High -- | Low -- °F
--% Chance of Precip.
Yesterday
High -- | Low -- °F
Precip. -- in
6:09 AM 8:10 PM
Waning Crescent, 11% visible
Pressure 30.03 in
Visibility 4.0 miles
Clouds Clear
Dew Point 72 °F
Humidity 100%
Rainfall 0.00 in
Snow Depth Not available.
UV 0 out of 12
Pollen 3.60 out of 12
Air Quality Not available.
Flu Activity Not available.
METAR KRNV 230915Z AUTO 15003KT 4SM BR CLR 22/22 A3003 RMK AO2 T02220222

More Conditions Fewer Conditions

Pressure 30.03 in
Visibility 4.0 miles
Clouds Clear
Dew Point 72 °F
Humidity 100%
Rainfall 0.00 in
Snow Depth Not available.
UV 0 out of 12
Pollen 3.60 out of 12
Air Quality Not available.
Flu Activity Not available.
METAR KRNV 230915Z AUTO 15003KT 4SM BR CLR 22/22 A3003 RMK AO2 T02220222

More Conditions Fewer Conditions

10-Day Weather Forecast

Almanac

Astronomy

Jul. 23, 2014 Rise Set
Actual Time 6:09 AM CDT 8:10 PM CDT
Civil Twilight 5:41 AM CDT 8:38 PM CDT
Nautical Twilight 5:07 AM CDT 9:12 PM CDT
Astronomical Twilight 4:31 AM CDT 9:48 PM CDT
Moon 3:27 AM CDT 5:40 PM CDT
Length of Visible Light 14h 57m
Length of Day
14h 01m
Tomorrow will be 1m 19s shorter.
Waning Crescent, 11% of the Moon is Illuminated
Today
Waning Crescent
Jul 26
New
Aug 3
First Quarter
Aug 10
Full
Aug 17
Last Quarter

Today's Extremes

State Highs State Lows

Community

WunderPhotos

Upload Photos

1,736,535 photos uploaded!

Nearby

Snow Depth

Station Depth Elevation
No new snow has been reported.

Earthquake Activity

City Distance Mag. Time & Date
No recent earthquake activity has been reported nearby.
Minimum magnitude displayed is 2.5.

Coastal Water Temperatures

Place Temperature
No Stations Reporting

Nearby Weather Stations

Station Location Temp. Heat Index Dew Point Humidity Wind Precip. Elev Updated Type
MesoWest SCOTT , Scott, MS 75 °F 74 °F 73 °F 93% NW  at  2 mph 0.00 in / hr 165 ft 3:00 AM CDT MADIS

Show More Stations Show Fewer Stations